Time;durP1;ratioP1;P1;durP2;ratioP2;P2;SDS_P1;SDS_P2;PMS_P1;PMS_P2;Temp;Humidity;BMP_temperature;BMP_pressure;BME280_temperature;BME280_humidity;BME280_pressure;Samples;Min_cycle;Max_cycle;Signal;HPM_P1;HPM_P2
2021/10/23 00:00:25;;;;;;;15.00;5.53;;;6.70;99.50;;;;;;5025761;28;20079;-81
2021/10/23 00:02:51;;;;;;;17.93;5.87;;;6.70;99.20;;;;;;5061331;28;20083;-81
2021/10/23 00:05:17;;;;;;;16.10;5.33;;;6.60;99.20;;;;;;5071322;28;20017;-82
2021/10/23 00:07:43;;;;;;;17.40;5.33;;;6.70;99.30;;;;;;5042527;28;20118;-81
2021/10/23 00:10:10;;;;;;;19.60;6.73;;;6.70;99.30;;;;;;5063163;28;20477;-81
2021/10/23 00:12:36;;;;;;;13.07;5.47;;;6.70;99.30;;;;;;5069695;28;20047;-80
2021/10/23 00:15:03;;;;;;;15.23;5.73;;;6.60;99.40;;;;;;5073175;28;20436;-80
2021/10/23 00:17:29;;;;;;;17.20;5.70;;;6.60;99.40;;;;;;5041890;28;20064;-80
2021/10/23 00:19:57;;;;;;;17.57;5.60;;;6.70;99.50;;;;;;5058318;28;20067;-79
2021/10/23 00:22:24;;;;;;;19.00;5.23;;;6.60;99.80;;;;;;5026413;28;20033;-80
2021/10/23 00:24:49;;;;;;;14.53;5.60;;;6.60;99.60;;;;;;5059748;28;20021;-79
2021/10/23 00:27:15;;;;;;;18.83;5.53;;;6.70;99.60;;;;;;5059725;28;20086;-79
2021/10/23 00:29:41;;;;;;;19.60;6.17;;;6.70;99.70;;;;;;5058558;28;20021;-81
2021/10/23 00:32:07;;;;;;;15.13;5.00;;;6.70;99.90;;;;;;5025275;28;20500;-82
2021/10/23 00:34:33;;;;;;;20.83;5.77;;;6.70;99.90;;;;;;5025341;28;20116;-82
2021/10/23 00:36:58;;;;;;;16.43;5.97;;;6.70;99.90;;;;;;5058507;28;20461;-81
2021/10/23 00:39:24;;;;;;;14.13;5.97;;;6.70;99.90;;;;;;5025380;28;20029;-81
2021/10/23 00:41:49;;;;;;;13.10;5.50;;;6.80;99.90;;;;;;5042086;28;20477;-81
2021/10/23 00:44:31;;;;;;;14.83;5.20;;;6.80;99.90;;;;;;5025551;28;20452;-81
2021/10/23 00:47:11;;;;;;;13.90;5.17;;;6.80;99.90;;;;;;5058746;28;20017;-81
2021/10/23 00:49:39;;;;;;;19.17;6.43;;;6.90;99.90;;;;;;5058843;28;20013;-82
2021/10/23 00:52:06;;;;;;;14.50;6.53;;;6.90;99.90;;;;;;5060280;28;20388;-82
2021/10/23 00:54:33;;;;;;;18.20;5.77;;;6.80;99.80;;;;;;5025835;28;20029;-81
2021/10/23 00:56:59;;;;;;;11.67;4.97;;;6.80;99.80;;;;;;5025467;28;20473;-80
2021/10/23 00:59:26;;;;;;;17.93;6.17;;;6.80;99.80;;;;;;5058020;28;20086;-81
2021/10/23 01:01:52;;;;;;;20.33;5.60;;;6.80;99.80;;;;;;5055409;28;20025;-81
2021/10/23 01:04:21;;;;;;;20.17;5.73;;;6.80;99.80;;;;;;5055121;28;20013;-81
2021/10/23 01:06:47;;;;;;;15.97;5.83;;;6.80;99.80;;;;;;5055112;28;20036;-82
2021/10/23 01:09:14;;;;;;;16.00;5.63;;;6.80;99.90;;;;;;5038352;28;20025;-81
2021/10/23 01:11:41;;;;;;;12.17;4.97;;;6.70;99.90;;;;;;5038389;28;20033;-81
2021/10/23 01:14:18;;;;;;;14.43;5.20;;;6.80;99.90;;;;;;5037940;28;20052;-82
2021/10/23 01:16:45;;;;;;;16.57;4.73;;;6.80;99.90;;;;;;5054916;28;20083;-82
2021/10/23 01:19:12;;;;;;;16.23;5.10;;;6.80;99.80;;;;;;5038341;28;20033;-82
2021/10/23 01:21:39;;;;;;;14.23;5.97;;;6.70;99.80;;;;;;5038535;28;20025;-82
2021/10/23 01:24:06;;;;;;;15.27;6.30;;;6.80;99.80;;;;;;5056130;28;20029;-82
2021/10/23 01:26:33;;;;;;;15.93;6.03;;;6.70;99.80;;;;;;5038142;28;20028;-81
2021/10/23 01:28:59;;;;;;;17.97;5.43;;;6.70;99.70;;;;;;5054706;28;20021;-81
2021/10/23 01:31:27;;;;;;;17.03;5.47;;;6.70;99.90;;;;;;5056139;28;20096;-81
2021/10/23 01:33:53;;;;;;;15.50;5.20;;;6.70;99.70;;;;;;5054809;28;20040;-81
2021/10/23 01:36:19;;;;;;;19.60;6.10;;;6.70;99.70;;;;;;5054683;28;20024;-81
2021/10/23 01:38:45;;;;;;;14.20;4.77;;;6.60;99.60;;;;;;5063330;28;20082;-81
2021/10/23 01:41:12;;;;;;;15.73;5.53;;;6.60;99.60;;;;;;5041077;28;20060;-81
2021/10/23 01:43:38;;;;;;;18.53;5.80;;;6.50;99.60;;;;;;5074164;28;20036;-81
2021/10/23 01:46:04;;;;;;;15.40;5.90;;;6.60;99.60;;;;;;5041149;28;20054;-81
2021/10/23 01:48:32;;;;;;;21.53;6.40;;;6.60;99.60;;;;;;5057959;28;20035;-82
2021/10/23 01:50:58;;;;;;;16.90;6.63;;;6.50;99.60;;;;;;5075585;28;20024;-81
2021/10/23 01:53:24;;;;;;;18.47;6.60;;;6.60;99.60;;;;;;5040785;28;20031;-81
2021/10/23 01:55:52;;;;;;;18.83;7.20;;;6.50;99.60;;;;;;5074260;28;20483;-81
2021/10/23 01:58:18;;;;;;;18.30;6.97;;;6.50;99.60;;;;;;5055364;28;20556;-82
2021/10/23 02:00:43;;;;;;;15.43;5.90;;;6.40;99.50;;;;;;5050326;28;20123;-82
2021/10/23 02:03:09;;;;;;;15.63;7.07;;;6.40;99.50;;;;;;5040627;28;20143;-81
2021/10/23 02:05:35;;;;;;;19.23;6.63;;;6.40;99.50;;;;;;5056644;28;20580;-81
2021/10/23 02:08:00;;;;;;;14.00;6.63;;;6.30;99.50;;;;;;5057012;28;20029;-81
2021/10/23 02:10:26;;;;;;;13.50;6.73;;;6.30;99.50;;;;;;5057060;28;20031;-81
2021/10/23 02:12:52;;;;;;;20.17;7.10;;;6.40;99.50;;;;;;5056817;28;20081;-81
2021/10/23 02:15:17;;;;;;;14.67;5.93;;;6.30;99.50;;;;;;5056798;28;20047;-82
2021/10/23 02:17:43;;;;;;;24.53;6.70;;;6.30;99.50;;;;;;5056923;28;20433;-82
2021/10/23 02:20:11;;;;;;;14.53;6.43;;;6.20;99.40;;;;;;5056618;28;20396;-82
2021/10/23 02:22:38;;;;;;;17.17;7.57;;;6.20;99.50;;;;;;5073422;28;20031;-81
2021/10/23 02:25:05;;;;;;;20.30;8.50;;;6.20;99.50;;;;;;5040308;28;20050;-82
2021/10/23 02:27:31;;;;;;;14.73;7.53;;;6.10;99.50;;;;;;5073249;28;20013;-82
2021/10/23 02:29:56;;;;;;;13.53;7.17;;;6.10;99.60;;;;;;5054795;28;20365;-81
2021/10/23 02:35:44;;;;;;;15.17;6.57;;;6.10;99.60;;;;;;5067334;28;20531;-82
2021/10/23 02:38:11;;;;;;;21.07;7.00;;;6.10;99.60;;;;;;5039762;28;20044;-81
2021/10/23 02:40:37;;;;;;;12.17;5.97;;;6.00;99.60;;;;;;5056072;28;20484;-81
2021/10/23 02:43:03;;;;;;;13.87;6.53;;;6.00;99.60;;;;;;5073823;28;20024;-81
2021/10/23 02:45:29;;;;;;;14.10;6.90;;;6.00;99.60;;;;;;5072507;28;20021;-81
2021/10/23 02:47:55;;;;;;;14.40;6.10;;;6.00;99.60;;;;;;5073188;28;20089;-81
2021/10/23 02:50:21;;;;;;;16.00;7.10;;;6.00;99.60;;;;;;5054819;28;20024;-81
2021/10/23 02:52:47;;;;;;;12.57;7.57;;;5.90;99.60;;;;;;5072566;28;20039;-81
2021/10/23 02:55:13;;;;;;;15.57;7.37;;;5.90;99.60;;;;;;5055573;28;20521;-81
2021/10/23 02:57:39;;;;;;;19.60;7.13;;;6.00;99.70;;;;;;5072830;28;20024;-81
2021/10/23 03:00:06;;;;;;;14.17;7.73;;;6.00;99.80;;;;;;5056250;28;20121;-81
2021/10/23 03:02:33;;;;;;;13.97;6.53;;;6.00;99.80;;;;;;5056037;28;20396;-81
2021/10/23 03:05:03;;;;;;;19.70;7.57;;;6.00;99.90;;;;;;5071835;28;20236;-81
2021/10/23 03:07:30;;;;;;;14.97;6.67;;;6.00;99.90;;;;;;5072577;28;20016;-81
2021/10/23 03:09:55;;;;;;;16.50;7.23;;;6.00;99.90;;;;;;5056043;28;20086;-81
2021/10/23 03:12:21;;;;;;;16.33;7.63;;;6.00;99.90;;;;;;5056060;28;20032;-81
2021/10/23 03:14:47;;;;;;;16.43;7.33;;;6.00;99.90;;;;;;5034544;28;20044;-82
2021/10/23 03:17:16;;;;;;;13.87;6.80;;;5.90;99.90;;;;;;5052551;28;20059;-82
2021/10/23 03:19:41;;;;;;;13.10;7.10;;;5.90;99.80;;;;;;5053441;28;20035;-82
2021/10/23 03:22:07;;;;;;;18.40;7.70;;;5.90;99.90;;;;;;5035970;28;20123;-81
2021/10/23 03:24:32;;;;;;;16.60;7.00;;;5.90;99.90;;;;;;5052022;28;20129;-81
2021/10/23 03:26:58;;;;;;;13.43;7.63;;;5.90;99.90;;;;;;5052489;28;20446;-81
2021/10/23 03:29:24;;;;;;;15.87;7.43;;;5.80;99.90;;;;;;5052464;28;20380;-82
2021/10/23 03:31:50;;;;;;;15.90;6.83;;;5.90;99.90;;;;;;5053715;28;20396;-81
2021/10/23 03:34:15;;;;;;;17.17;8.00;;;5.90;99.80;;;;;;5052274;28;20033;-81
2021/10/23 03:36:41;;;;;;;17.80;7.50;;;5.90;99.90;;;;;;5035675;28;20021;-81
2021/10/23 03:39:06;;;;;;;12.97;7.57;;;5.90;99.80;;;;;;5035766;28;20033;-81
2021/10/23 03:41:32;;;;;;;14.77;7.07;;;5.80;99.80;;;;;;5052075;28;20029;-81
2021/10/23 03:43:58;;;;;;;15.00;7.67;;;5.80;99.80;;;;;;5035894;28;20055;-81
2021/10/23 03:46:23;;;;;;;15.03;7.63;;;5.90;99.90;;;;;;5035886;28;20370;-81
2021/10/23 03:48:49;;;;;;;17.43;8.10;;;5.80;99.90;;;;;;5035943;28;20487;-82
2021/10/23 03:51:15;;;;;;;16.00;7.43;;;5.80;99.90;;;;;;5050234;28;20481;-82
2021/10/23 03:53:41;;;;;;;22.70;8.87;;;5.80;99.90;;;;;;5038684;28;20029;-82
2021/10/23 03:56:06;;;;;;;16.00;8.77;;;5.80;99.90;;;;;;5054374;28;20102;-81
2021/10/23 03:58:32;;;;;;;14.03;7.47;;;5.80;99.90;;;;;;5054915;28;20054;-81
2021/10/23 04:00:58;;;;;;;15.87;7.83;;;5.80;99.90;;;;;;5055478;28;20031;-81
2021/10/23 04:03:24;;;;;;;13.83;7.70;;;5.70;99.90;;;;;;5055452;28;20033;-82
2021/10/23 04:05:49;;;;;;;22.90;8.10;;;5.80;99.90;;;;;;5037854;28;20093;-81
2021/10/23 04:08:15;;;;;;;14.07;7.53;;;5.70;99.90;;;;;;5073339;28;20065;-81
2021/10/23 04:10:41;;;;;;;15.20;8.00;;;5.70;99.90;;;;;;5038929;28;20023;-81
2021/10/23 04:13:06;;;;;;;16.93;8.23;;;5.70;99.90;;;;;;5055726;28;20037;-81
2021/10/23 04:15:33;;;;;;;20.10;8.43;;;5.70;99.90;;;;;;5072019;28;20036;-81
2021/10/23 04:17:59;;;;;;;18.83;8.07;;;5.70;99.90;;;;;;5039061;28;20400;-81
2021/10/23 04:20:25;;;;;;;18.97;7.90;;;5.70;99.90;;;;;;5038551;28;20032;-81
2021/10/23 04:22:51;;;;;;;25.70;8.50;;;5.60;99.90;;;;;;5038601;28;20032;-82
2021/10/23 04:25:16;;;;;;;13.97;7.87;;;5.80;99.90;;;;;;5055245;28;20507;-81
2021/10/23 04:27:43;;;;;;;30.03;8.60;;;5.60;99.90;;;;;;5038708;28;20025;-81
2021/10/23 04:30:11;;;;;;;75.97;10.20;;;5.60;99.90;;;;;;5055404;28;20063;-81
2021/10/23 04:32:37;;;;;;;42.20;8.57;;;5.60;99.90;;;;;;5071807;28;20395;-81
2021/10/23 04:35:03;;;;;;;79.47;10.83;;;5.60;99.90;;;;;;5074593;28;20021;-81
2021/10/23 04:37:30;;;;;;;59.03;10.03;;;5.60;99.90;;;;;;5042984;28;20033;-81
2021/10/23 04:39:56;;;;;;;77.30;10.73;;;5.60;99.90;;;;;;5059062;28;20037;-80
2021/10/23 04:42:22;;;;;;;83.20;10.40;;;5.60;99.90;;;;;;5059043;28;20042;-81
2021/10/23 04:44:47;;;;;;;27.57;7.80;;;5.50;99.90;;;;;;5059036;28;20384;-80
2021/10/23 04:47:13;;;;;;;38.37;8.57;;;5.50;99.90;;;;;;5059658;28;20017;-82
2021/10/23 04:49:38;;;;;;;78.87;9.90;;;5.60;99.90;;;;;;5058772;28;20480;-80
2021/10/23 04:52:04;;;;;;;42.40;8.50;;;5.50;99.90;;;;;;5042517;28;20028;-81
2021/10/23 04:54:30;;;;;;;41.40;8.13;;;5.50;99.90;;;;;;5059144;28;20024;-81
2021/10/23 04:56:55;;;;;;;116.67;10.27;;;5.50;99.90;;;;;;5042389;28;20056;-81
2021/10/23 04:59:21;;;;;;;106.23;10.27;;;5.50;99.90;;;;;;5042627;28;20362;-81
2021/10/23 05:01:47;;;;;;;48.90;7.03;;;5.40;99.90;;;;;;5058914;28;20020;-81
2021/10/23 05:04:12;;;;;;;70.27;9.17;;;5.40;99.90;;;;;;5042051;28;20063;-82
2021/10/23 05:06:38;;;;;;;35.60;7.37;;;5.40;99.90;;;;;;5075028;28;20020;-81
2021/10/23 05:09:04;;;;;;;92.47;10.53;;;5.50;99.90;;;;;;5058439;28;20108;-81
2021/10/23 05:11:29;;;;;;;173.23;12.73;;;5.40;99.90;;;;;;5058427;28;20046;-79
2021/10/23 05:13:55;;;;;;;31.80;6.53;;;5.40;99.90;;;;;;5041642;28;20045;-81
2021/10/23 05:16:20;;;;;;;98.53;9.43;;;5.40;99.90;;;;;;5058331;28;20039;-81
2021/10/23 05:18:49;;;;;;;35.10;6.70;;;5.40;99.90;;;;;;5076464;28;20024;-81
2021/10/23 05:21:17;;;;;;;61.03;7.47;;;5.30;99.90;;;;;;5074685;28;20031;-81
2021/10/23 05:23:43;;;;;;;109.27;10.07;;;5.30;99.90;;;;;;5074743;28;20035;-81
2021/10/23 05:26:09;;;;;;;51.43;6.37;;;5.30;99.90;;;;;;5058197;28;20078;-81
2021/10/23 05:28:34;;;;;;;141.47;10.30;;;5.30;99.90;;;;;;5041359;28;20021;-80
2021/10/23 05:31:01;;;;;;;73.03;6.40;;;5.40;99.90;;;;;;5057644;28;20112;-81
2021/10/23 05:33:27;;;;;;;57.20;6.97;;;5.30;99.90;;;;;;5041571;28;20553;-80
2021/10/23 05:35:52;;;;;;;50.63;6.90;;;5.30;99.90;;;;;;5041353;28;20127;-81
2021/10/23 05:38:18;;;;;;;30.63;6.73;;;5.30;99.90;;;;;;5075623;28;20384;-80
2021/10/23 05:40:44;;;;;;;25.60;6.83;;;5.30;99.90;;;;;;5054174;28;20408;-80
2021/10/23 05:43:09;;;;;;;30.27;7.23;;;5.40;99.90;;;;;;5072506;28;20033;-83
2021/10/23 05:45:35;;;;;;;49.17;8.23;;;5.30;99.90;;;;;;5072386;28;20466;-81
2021/10/23 05:48:01;;;;;;;56.37;8.60;;;5.40;99.90;;;;;;5055907;28;20025;-80
2021/10/23 05:50:27;;;;;;;38.90;6.63;;;5.30;99.90;;;;;;5073882;28;20024;-80
2021/10/23 05:52:52;;;;;;;22.33;6.63;;;5.40;99.90;;;;;;5054278;28;20488;-80
2021/10/23 05:55:18;;;;;;;22.13;6.17;;;5.30;99.90;;;;;;5054037;28;20453;-80
2021/10/23 05:57:44;;;;;;;14.77;7.30;;;5.30;99.90;;;;;;5066164;28;20480;-79
2021/10/23 06:00:11;;;;;;;25.57;7.17;;;5.30;99.90;;;;;;5068172;28;20035;-80
2021/10/23 06:02:38;;;;;;;39.60;7.70;;;5.30;99.90;;;;;;5056093;28;20391;-80
2021/10/23 06:05:04;;;;;;;16.97;7.37;;;5.30;99.90;;;;;;5072373;28;20381;-80
2021/10/23 06:07:34;;;;;;;52.07;8.87;;;5.30;99.90;;;;;;5058434;28;20476;-80
2021/10/23 06:10:03;;;;;;;63.13;8.60;;;5.30;99.90;;;;;;5075168;28;20421;-80
2021/10/23 06:12:30;;;;;;;48.17;8.23;;;5.40;99.90;;;;;;5056658;28;20024;-80
2021/10/23 06:14:57;;;;;;;25.20;7.83;;;5.30;99.90;;;;;;5053338;28;20057;-82
2021/10/23 06:18:09;;;;;;;32.73;7.57;;;5.40;99.90;;;;;;5056396;28;20025;-83
2021/10/23 06:20:37;;;;;;;38.27;7.47;;;5.40;99.90;;;;;;5073014;28;20119;-83
2021/10/23 06:23:03;;;;;;;38.03;8.43;;;5.40;99.90;;;;;;5073945;28;20123;-83
2021/10/23 06:25:29;;;;;;;21.20;7.70;;;5.40;99.90;;;;;;5056994;28;20049;-82
2021/10/23 06:27:56;;;;;;;28.03;7.27;;;5.40;99.90;;;;;;5040470;28;20047;-82
2021/10/23 06:30:24;;;;;;;26.87;7.57;;;5.50;99.90;;;;;;5040236;28;20472;-79
2021/10/23 06:32:54;;;;;;;27.10;7.90;;;5.50;99.90;;;;;;5044651;28;20033;-79
2021/10/23 06:35:21;;;;;;;52.33;8.40;;;5.50;99.90;;;;;;5053158;28;20071;-79
2021/10/23 06:37:47;;;;;;;62.70;10.30;;;5.60;99.90;;;;;;5060027;28;20029;-79
2021/10/23 06:40:14;;;;;;;87.93;10.20;;;5.60;99.90;;;;;;5059060;28;20021;-79
2021/10/23 06:42:41;;;;;;;59.73;9.67;;;5.60;99.90;;;;;;5070032;28;20047;-79
2021/10/23 06:45:09;;;;;;;72.13;10.73;;;5.70;99.90;;;;;;5066917;28;20025;-79
2021/10/23 06:47:38;;;;;;;46.10;8.70;;;5.70;99.90;;;;;;5052355;28;20078;-79
2021/10/23 06:50:06;;;;;;;34.43;8.60;;;5.70;99.90;;;;;;5065349;28;20106;-78
2021/10/23 06:52:32;;;;;;;42.30;9.53;;;5.70;99.90;;;;;;5062265;28;20033;-78
2021/10/23 06:54:57;;;;;;;56.57;10.00;;;5.80;99.90;;;;;;5060039;28;20397;-79
2021/10/23 06:57:23;;;;;;;51.93;8.23;;;5.80;99.90;;;;;;5024418;28;20061;-78
2021/10/23 06:59:49;;;;;;;36.50;8.53;;;5.90;99.90;;;;;;5035155;28;20036;-79
2021/10/23 07:02:15;;;;;;;70.30;10.07;;;5.80;99.90;;;;;;5019551;28;20539;-79
2021/10/23 07:04:41;;;;;;;39.90;9.57;;;5.90;99.90;;;;;;5052598;28;20055;-79
2021/10/23 07:07:07;;;;;;;44.67;9.93;;;6.00;99.90;;;;;;5052688;28;20516;-79
2021/10/23 07:09:33;;;;;;;52.93;9.53;;;6.00;99.90;;;;;;5019372;28;20056;-79
2021/10/23 07:11:59;;;;;;;42.00;8.30;;;6.00;99.90;;;;;;5052686;28;20104;-79
2021/10/23 07:14:25;;;;;;;23.83;9.37;;;6.10;99.90;;;;;;5053457;28;20049;-79
2021/10/23 07:16:51;;;;;;;43.10;8.67;;;6.20;99.90;;;;;;5035795;28;20025;-79
2021/10/23 07:19:17;;;;;;;66.17;9.73;;;6.20;99.90;;;;;;5053802;28;20025;-79
2021/10/23 07:21:43;;;;;;;54.60;10.90;;;6.30;99.90;;;;;;5053655;28;20025;-79
2021/10/23 07:24:08;;;;;;;39.63;10.40;;;6.30;99.90;;;;;;5053226;28;20426;-78
2021/10/23 07:26:35;;;;;;;61.57;10.33;;;6.40;99.90;;;;;;5035521;28;20025;-78
2021/10/23 07:29:02;;;;;;;69.77;11.00;;;6.40;99.90;;;;;;5053194;28;20457;-78
2021/10/23 07:31:27;;;;;;;61.97;11.57;;;6.50;99.90;;;;;;5037350;28;20028;-78
2021/10/23 07:33:53;;;;;;;55.47;11.97;;;6.60;99.90;;;;;;5035081;28;20056;-78
2021/10/23 07:36:19;;;;;;;66.80;11.87;;;6.50;99.90;;;;;;5035357;28;20029;-78
2021/10/23 07:38:46;;;;;;;91.80;12.87;;;6.60;99.90;;;;;;5053251;28;20029;-78
2021/10/23 07:41:11;;;;;;;114.43;12.70;;;6.60;99.90;;;;;;5035261;28;20456;-80
2021/10/23 07:43:37;;;;;;;54.03;12.57;;;6.70;99.90;;;;;;5035488;28;20127;-80
2021/10/23 07:46:03;;;;;;;71.37;14.13;;;6.80;99.90;;;;;;5053186;28;20048;-80
2021/10/23 07:48:29;;;;;;;48.17;12.97;;;6.80;99.90;;;;;;5053160;28;20381;-81
2021/10/23 07:50:54;;;;;;;45.60;12.90;;;6.80;99.90;;;;;;5051952;28;20049;-80
2021/10/23 07:53:20;;;;;;;38.00;13.97;;;6.80;99.90;;;;;;5035361;28;20127;-79
2021/10/23 07:55:47;;;;;;;38.53;13.03;;;6.90;99.90;;;;;;5051978;28;20032;-79
2021/10/23 07:58:12;;;;;;;29.87;14.13;;;7.00;99.90;;;;;;5035357;28;20029;-80
2021/10/23 08:00:38;;;;;;;26.97;14.07;;;7.00;99.90;;;;;;5051956;28;20119;-80
2021/10/23 08:03:04;;;;;;;20.57;13.77;;;7.10;99.90;;;;;;5051753;28;20047;-79
2021/10/23 08:05:33;;;;;;;29.80;13.97;;;7.20;99.90;;;;;;5051575;28;20112;-78
2021/10/23 08:07:59;;;;;;;52.57;14.67;;;7.30;99.90;;;;;;5072978;28;20056;-78
2021/10/23 08:10:27;;;;;;;22.17;14.37;;;7.40;99.90;;;;;;5074027;28;20056;-78
2021/10/23 08:12:53;;;;;;;21.87;13.50;;;7.40;99.90;;;;;;5075726;28;20400;-79
2021/10/23 08:15:20;;;;;;;19.67;13.03;;;7.50;99.90;;;;;;5057593;28;20083;-79
2021/10/23 08:17:46;;;;;;;18.67;13.30;;;7.60;99.90;;;;;;5039330;28;20040;-78
2021/10/23 08:20:12;;;;;;;17.43;13.63;;;7.70;99.90;;;;;;5055590;28;20029;-78
2021/10/23 08:22:38;;;;;;;20.30;13.30;;;7.70;99.90;;;;;;5038649;28;20103;-79
2021/10/23 08:25:07;;;;;;;17.27;13.73;;;7.80;99.90;;;;;;5055508;28;20529;-79
2021/10/23 08:27:34;;;;;;;20.77;13.93;;;7.90;99.90;;;;;;5055727;28;20376;-79
2021/10/23 08:30:02;;;;;;;18.10;13.67;;;7.90;99.90;;;;;;5056051;28;20040;-79
2021/10/23 08:32:27;;;;;;;19.43;13.37;;;8.00;99.90;;;;;;5055364;28;20388;-79
2021/10/23 08:34:55;;;;;;;18.57;13.37;;;8.10;99.90;;;;;;5038706;28;20063;-78
2021/10/23 08:37:22;;;;;;;18.90;13.90;;;8.10;99.90;;;;;;5038961;28;20040;-78
2021/10/23 08:39:48;;;;;;;19.87;14.17;;;8.20;99.90;;;;;;5055103;28;20030;-77
2021/10/23 08:42:15;;;;;;;19.53;14.40;;;8.20;99.90;;;;;;5054717;28;20025;-77
2021/10/23 08:44:43;;;;;;;25.07;15.97;;;8.30;99.90;;;;;;5056657;28;20384;-77
2021/10/23 08:47:08;;;;;;;19.07;13.00;;;8.30;99.90;;;;;;5054968;28;20087;-77
2021/10/23 08:49:35;;;;;;;19.20;14.00;;;8.30;99.90;;;;;;5068922;28;20032;-77
2021/10/23 08:52:02;;;;;;;18.90;13.47;;;8.40;99.90;;;;;;5073807;28;20025;-77
2021/10/23 08:54:34;;;;;;;21.00;14.40;;;8.40;99.90;;;;;;5076153;28;20043;-77
2021/10/23 08:57:01;;;;;;;18.90;13.50;;;8.60;99.90;;;;;;5044555;28;20497;-77
2021/10/23 08:59:27;;;;;;;19.63;14.57;;;8.60;99.90;;;;;;5056305;28;20048;-77
2021/10/23 09:02:02;;;;;;;21.40;15.13;;;8.70;99.90;;;;;;5054771;28;20079;-77
2021/10/23 09:04:32;;;;;;;19.97;14.03;;;8.70;99.90;;;;;;5055033;28;20057;-79
2021/10/23 09:07:14;;;;;;;18.03;13.27;;;8.80;99.90;;;;;;5054686;28;20019;-78
2021/10/23 09:09:51;;;;;;;17.07;13.77;;;8.80;99.90;;;;;;5054752;28;20022;-78
2021/10/23 09:12:29;;;;;;;17.63;13.50;;;8.90;99.90;;;;;;5054744;28;20017;-79
2021/10/23 09:15:04;;;;;;;16.70;13.13;;;9.00;99.90;;;;;;5054380;28;20037;-79
2021/10/23 09:17:32;;;;;;;17.10;13.77;;;8.90;99.90;;;;;;5055953;28;20466;-79
2021/10/23 09:20:04;;;;;;;18.33;13.10;;;9.20;99.90;;;;;;5054500;28;20017;-79
2021/10/23 09:22:39;;;;;;;20.83;15.13;;;9.30;99.90;;;;;;5054072;28;20388;-80
2021/10/23 09:25:24;;;;;;;22.43;15.53;;;9.30;99.90;;;;;;5054357;28;20017;-81
2021/10/23 09:27:52;;;;;;;19.63;14.47;;;9.40;99.90;;;;;;5055757;28;20071;-80
2021/10/23 09:30:22;;;;;;;20.43;14.40;;;9.50;99.90;;;;;;5058315;28;20477;-80
2021/10/23 09:32:52;;;;;;;17.63;13.03;;;9.60;99.90;;;;;;5074449;28;20021;-80
2021/10/23 09:35:19;;;;;;;17.43;13.30;;;9.40;99.90;;;;;;5057732;28;20025;-74
2021/10/23 09:37:46;;;;;;;18.13;14.07;;;9.50;99.90;;;;;;5074304;28;20107;-74
2021/10/23 09:40:21;;;;;;;19.97;13.20;;;9.60;99.90;;;;;;5074251;28;20032;-74
2021/10/23 09:43:02;;;;;;;19.00;14.17;;;9.60;99.90;;;;;;5074050;28;20024;-74
2021/10/23 09:45:28;;;;;;;19.67;13.37;;;9.70;99.90;;;;;;5074305;28;20391;-74
2021/10/23 09:48:05;;;;;;;19.30;13.43;;;9.90;99.90;;;;;;5057438;28;20020;-75
2021/10/23 09:50:30;;;;;;;17.80;13.57;;;9.90;99.90;;;;;;5073879;28;20070;-75
2021/10/23 09:53:08;;;;;;;19.17;13.43;;;9.90;99.90;;;;;;5074225;28;20040;-74
2021/10/23 09:55:48;;;;;;;20.33;12.70;;;10.00;99.90;;;;;;5075003;28;20510;-76
2021/10/23 09:58:20;;;;;;;17.88;13.15;;;10.10;99.90;;;;;;5074930;28;20024;-80
2021/10/23 10:00:47;;;;;;;17.00;13.35;;;10.20;99.90;;;;;;5070369;28;20499;-78
2021/10/23 10:03:13;;;;;;;17.25;12.38;;;10.40;99.90;;;;;;5037197;28;20535;-78
2021/10/23 10:05:40;;;;;;;17.15;12.93;;;10.40;99.90;;;;;;5053894;28;20017;-78
2021/10/23 10:08:10;;;;;;;18.00;13.90;;;10.50;99.90;;;;;;5053672;28;20108;-77
2021/10/23 10:10:42;;;;;;;21.55;14.27;;;10.60;99.90;;;;;;5055054;28;20032;-77
2021/10/23 10:13:12;;;;;;;19.05;13.77;;;10.60;99.90;;;;;;5054973;28;20032;-77
2021/10/23 10:15:39;;;;;;;16.02;13.07;;;10.70;99.90;;;;;;5067023;28;20397;-78
2021/10/23 10:18:08;;;;;;;18.50;13.48;;;10.70;99.90;;;;;;5070081;28;20040;-77
2021/10/23 10:20:36;;;;;;;19.85;14.35;;;10.80;99.90;;;;;;5052845;28;20481;-75
2021/10/23 10:23:06;;;;;;;23.15;16.17;;;10.90;99.90;;;;;;5056971;28;20377;-77
2021/10/23 10:25:32;;;;;;;18.48;13.43;;;10.90;99.90;;;;;;5073071;28;20048;-77
2021/10/23 10:28:14;;;;;;;21.40;13.57;;;11.10;99.90;;;;;;5056526;28;20051;-77
2021/10/23 10:30:43;;;;;;;17.65;12.57;;;11.20;99.90;;;;;;5061276;28;20017;-77
2021/10/23 10:33:30;;;;;;;18.95;12.18;;;11.50;99.90;;;;;;5067862;28;20433;-79
2021/10/23 10:36:17;;;;;;;17.45;11.38;;;11.70;99.90;;;;;;5037347;28;20017;-76
2021/10/23 10:39:06;;;;;;;21.83;11.15;;;12.00;99.90;;;;;;5064878;28;20028;-76
2021/10/23 10:44:16;;;;;;;16.13;9.75;;;12.60;99.90;;;;;;5056267;28;20033;-77
2021/10/23 10:47:07;;;;;;;14.35;10.07;;;12.70;99.90;;;;;;5072880;28;20059;-77
2021/10/23 10:49:50;;;;;;;14.70;10.55;;;12.90;99.90;;;;;;5074489;28;20478;-77
2021/10/23 10:52:41;;;;;;;17.42;11.77;;;13.00;99.90;;;;;;5036770;28;20439;-81
2021/10/23 10:55:15;;;;;;;18.10;11.18;;;13.00;99.50;;;;;;5065977;28;20031;-82
2021/10/23 10:57:54;;;;;;;;;;;13.00;98.90;;;;;;5074481;28;20021;-80
2021/10/23 11:00:19;;;;;;;22.35;12.65;;;13.00;98.50;;;;;;5073683;28;19904;-81
2021/10/23 11:02:45;;;;;;;18.67;12.13;;;13.00;98.40;;;;;;5072596;28;20392;-80
2021/10/23 11:05:20;;;;;;;21.60;12.43;;;13.00;98.40;;;;;;5055973;28;20025;-80
2021/10/23 11:08:08;;;;;;;19.85;13.40;;;13.10;98.20;;;;;;5053024;28;20108;-81
2021/10/23 11:10:52;;;;;;;18.20;11.70;;;13.00;98.00;;;;;;5057450;28;20029;-80
2021/10/23 11:13:26;;;;;;;14.80;10.93;;;13.20;98.00;;;;;;5065011;28;20021;-80
2021/10/23 11:15:51;;;;;;;19.88;12.05;;;13.20;97.90;;;;;;5073803;28;20041;-80
2021/10/23 11:18:18;;;;;;;19.73;11.98;;;13.30;97.70;;;;;;5056363;28;20127;-80
2021/10/23 11:20:45;;;;;;;20.83;11.60;;;13.40;97.50;;;;;;5073910;28;20056;-81
2021/10/23 11:23:18;;;;;;;17.15;10.38;;;13.50;97.40;;;;;;5056003;28;20067;-80
2021/10/23 11:25:44;;;;;;;15.95;11.90;;;13.60;97.30;;;;;;5072618;28;20052;-81
2021/10/23 11:28:11;;;;;;;19.13;11.73;;;13.70;97.20;;;;;;5073063;28;20059;-80
2021/10/23 11:30:41;;;;;;;16.30;10.70;;;13.90;97.20;;;;;;5076533;28;20025;-80
2021/10/23 11:33:10;;;;;;;14.50;10.00;;;14.10;97.00;;;;;;5074125;28;20062;-80
2021/10/23 11:35:38;;;;;;;14.73;10.65;;;14.20;96.60;;;;;;5074796;28;20128;-80
2021/10/23 11:38:16;;;;;;;15.65;10.50;;;14.30;96.30;;;;;;5073619;28;20025;-81
2021/10/23 11:40:42;;;;;;;15.88;10.48;;;14.30;96.10;;;;;;5072402;28;20400;-77
2021/10/23 11:43:15;;;;;;;20.23;10.80;;;14.40;96.40;;;;;;5033819;28;20028;-78
2021/10/23 11:45:43;;;;;;;16.17;9.38;;;14.50;95.80;;;;;;5051488;28;20154;-77
2021/10/23 11:48:10;;;;;;;15.48;9.15;;;14.50;95.50;;;;;;5051959;28;20539;-77
2021/10/23 11:50:41;;;;;;;16.83;9.90;;;14.60;95.40;;;;;;5051980;28;20393;-77
2021/10/23 11:53:30;;;;;;;13.52;8.88;;;14.70;95.20;;;;;;5051977;28;20025;-78
2021/10/23 11:56:07;;;;;;;16.05;9.20;;;14.70;94.90;;;;;;5051899;28;20104;-78
2021/10/23 11:58:39;;;;;;;13.95;9.43;;;14.70;94.60;;;;;;5053038;28;20036;-77
2021/10/23 12:01:09;;;;;;;16.77;9.75;;;14.70;94.40;;;;;;5051820;28;20021;-78
2021/10/23 12:03:49;;;;;;;17.70;10.48;;;14.70;94.10;;;;;;5061475;28;20108;-77
2021/10/23 12:06:43;;;;;;;15.82;10.45;;;14.70;93.50;;;;;;5061535;28;20020;-79
2021/10/23 12:09:20;;;;;;;22.80;10.77;;;14.60;93.50;;;;;;5071944;28;20377;-77
2021/10/23 12:12:13;;;;;;;19.63;11.60;;;14.50;93.40;;;;;;5069975;28;20021;-78
2021/10/23 12:14:39;;;;;;;17.55;9.45;;;14.50;92.40;;;;;;5069640;28;20048;-78
2021/10/23 12:17:05;;;;;;;21.10;11.25;;;14.40;92.20;;;;;;5046346;28;20029;-77
2021/10/23 12:19:39;;;;;;;16.10;11.55;;;14.30;92.00;;;;;;5035277;28;20452;-77
2021/10/23 12:22:05;;;;;;;;;;;14.30;92.30;;;;;;5035962;28;20029;-80
2021/10/23 12:24:36;;;;;;;20.38;12.20;;;14.20;92.40;;;;;;5053478;28;19913;-81
2021/10/23 12:27:21;;;;;;;20.20;12.60;;;14.20;92.10;;;;;;5052784;28;20024;-80
2021/10/23 12:30:07;;;;;;;17.83;11.50;;;14.10;92.30;;;;;;5052285;28;20044;-80
2021/10/23 12:32:36;;;;;;;17.65;11.80;;;14.10;92.40;;;;;;5053275;28;20025;-81
2021/10/23 12:35:20;;;;;;;20.88;13.43;;;14.00;92.10;;;;;;5053096;28;20082;-82
2021/10/23 12:37:51;;;;;;;;;;;14.00;92.20;;;;;;5052177;28;20070;-81
2021/10/23 12:40:29;;;;;;;22.33;13.38;;;14.00;92.40;;;;;;5060349;28;19904;-81
2021/10/23 12:43:07;;;;;;;23.85;13.57;;;14.00;92.30;;;;;;5051678;28;20064;-84
2021/10/23 12:45:34;;;;;;;20.17;12.43;;;14.10;92.60;;;;;;5051494;28;20447;-81
2021/10/23 12:48:06;;;;;;;19.50;11.95;;;14.10;92.70;;;;;;5055222;28;20108;-83
2021/10/23 12:50:33;;;;;;;21.42;14.00;;;14.10;93.00;;;;;;5060433;28;20028;-81
2021/10/23 12:52:58;;;;;;;20.83;13.60;;;14.10;92.50;;;;;;5063641;28;20465;-81